Calfucura, Argentina
Current Conditions -  °F | °C
As of 6:00 PM on Saturday 20 Dec 2014 (Local Time) from SAZM Reporting Station
Clear Clear  
Wind Chill: 18°   Ceiling: Unl
Heat Index: 18°   Visibility: 6mi
Dew Point:   Wind: 25mph
Humidity: 45%   Direction: 160°SSE
Pressure: 29.71"   Gusts: NA
Location:  37.68°S, 57.52°W
Report Text: SAZM 202100Z 16022KT CAVOK 18/06 Q1006
Loading
Personal Weather Stations






























Interactive Weather Map New forecast layout! Learn more

10-Day Weather Forecast

Advertisements
Track Severe Weather on mobile